sensor_id;sensor_type;location;lat;lon;timestamp;temperature;humidity
76537;DHT22;65381;51.254;15.592;2023-07-29T00:00:03;18.30;64.60
76537;DHT22;65381;51.254;15.592;2023-07-29T00:02:58;18.20;64.70
76537;DHT22;65381;51.254;15.592;2023-07-29T00:05:27;18.20;64.70
76537;DHT22;65381;51.254;15.592;2023-07-29T00:07:55;18.20;64.90
76537;DHT22;65381;51.254;15.592;2023-07-29T00:10:23;18.20;65.00
76537;DHT22;65381;51.254;15.592;2023-07-29T00:12:51;18.20;65.00
76537;DHT22;65381;51.254;15.592;2023-07-29T00:15:19;18.20;65.10
76537;DHT22;65381;51.254;15.592;2023-07-29T00:17:47;18.10;65.20
76537;DHT22;65381;51.254;15.592;2023-07-29T00:20:15;18.20;65.20
76537;DHT22;65381;51.254;15.592;2023-07-29T00:22:43;18.10;65.30
76537;DHT22;65381;51.254;15.592;2023-07-29T00:25:12;18.10;65.30
76537;DHT22;65381;51.254;15.592;2023-07-29T00:27:39;18.10;65.40
76537;DHT22;65381;51.254;15.592;2023-07-29T00:30:08;18.10;65.40
76537;DHT22;65381;51.254;15.592;2023-07-29T00:32:36;18.10;65.50
76537;DHT22;65381;51.254;15.592;2023-07-29T00:35:06;18.10;65.50
76537;DHT22;65381;51.254;15.592;2023-07-29T00:37:34;18.00;65.60
76537;DHT22;65381;51.254;15.592;2023-07-29T00:40:02;18.00;65.60
76537;DHT22;65381;51.254;15.592;2023-07-29T00:42:30;18.00;65.70
76537;DHT22;65381;51.254;15.592;2023-07-29T00:44:58;18.00;65.80
76537;DHT22;65381;51.254;15.592;2023-07-29T00:47:26;18.00;65.80
76537;DHT22;65381;51.254;15.592;2023-07-29T00:49:55;18.00;65.90
76537;DHT22;65381;51.254;15.592;2023-07-29T00:52:23;18.00;66.00
76537;DHT22;65381;51.254;15.592;2023-07-29T00:54:54;18.00;66.00
76537;DHT22;65381;51.254;15.592;2023-07-29T00:57:23;18.00;66.00
76537;DHT22;65381;51.254;15.592;2023-07-29T00:59:53;18.00;65.70
76537;DHT22;65381;51.254;15.592;2023-07-29T01:02:21;18.00;65.90
76537;DHT22;65381;51.254;15.592;2023-07-29T01:04:55;18.00;66.00
76537;DHT22;65381;51.254;15.592;2023-07-29T01:17:52;17.90;66.40
76537;DHT22;65381;51.254;15.592;2023-07-29T01:20:24;17.80;66.50
76537;DHT22;65381;51.254;15.592;2023-07-29T01:22:52;17.90;66.50
76537;DHT22;65381;51.254;15.592;2023-07-29T01:25:21;17.90;66.70
76537;DHT22;65381;51.254;15.592;2023-07-29T01:27:51;17.90;66.70
76537;DHT22;65381;51.254;15.592;2023-07-29T01:30:24;18.00;66.70
76537;DHT22;65381;51.254;15.592;2023-07-29T01:33:16;17.90;66.80
76537;DHT22;65381;51.254;15.592;2023-07-29T01:36:07;18.00;66.80
76537;DHT22;65381;51.254;15.592;2023-07-29T01:38:38;17.90;66.80
76537;DHT22;65381;51.254;15.592;2023-07-29T01:41:09;17.90;66.80
76537;DHT22;65381;51.254;15.592;2023-07-29T01:43:38;17.90;66.90
76537;DHT22;65381;51.254;15.592;2023-07-29T01:46:14;18.00;67.00
76537;DHT22;65381;51.254;15.592;2023-07-29T01:48:42;17.90;67.00
76537;DHT22;65381;51.254;15.592;2023-07-29T01:51:13;17.90;67.00
76537;DHT22;65381;51.254;15.592;2023-07-29T01:53:41;17.90;67.10
76537;DHT22;65381;51.254;15.592;2023-07-29T01:56:10;17.90;67.10
76537;DHT22;65381;51.254;15.592;2023-07-29T01:58:42;17.90;67.20
76537;DHT22;65381;51.254;15.592;2023-07-29T02:01:10;17.90;67.20
76537;DHT22;65381;51.254;15.592;2023-07-29T02:03:37;17.90;67.30
76537;DHT22;65381;51.254;15.592;2023-07-29T02:06:05;17.90;67.30
76537;DHT22;65381;51.254;15.592;2023-07-29T02:08:33;17.80;67.50
76537;DHT22;65381;51.254;15.592;2023-07-29T02:11:01;17.80;67.60
76537;DHT22;65381;51.254;15.592;2023-07-29T02:13:30;17.80;67.70
76537;DHT22;65381;51.254;15.592;2023-07-29T02:15:58;17.80;67.80
76537;DHT22;65381;51.254;15.592;2023-07-29T02:18:25;17.80;67.90
76537;DHT22;65381;51.254;15.592;2023-07-29T02:20:54;17.90;67.90
76537;DHT22;65381;51.254;15.592;2023-07-29T02:23:22;17.90;67.90
76537;DHT22;65381;51.254;15.592;2023-07-29T02:25:50;18.00;67.90
76537;DHT22;65381;51.254;15.592;2023-07-29T02:28:18;18.00;67.90
76537;DHT22;65381;51.254;15.592;2023-07-29T02:30:46;18.00;68.00
76537;DHT22;65381;51.254;15.592;2023-07-29T02:33:14;18.00;68.00
76537;DHT22;65381;51.254;15.592;2023-07-29T02:35:42;18.00;68.00
76537;DHT22;65381;51.254;15.592;2023-07-29T02:38:10;18.00;68.00
76537;DHT22;65381;51.254;15.592;2023-07-29T02:40:38;18.00;68.10
76537;DHT22;65381;51.254;15.592;2023-07-29T02:43:06;17.90;68.20
76537;DHT22;65381;51.254;15.592;2023-07-29T02:45:34;17.90;68.20
76537;DHT22;65381;51.254;15.592;2023-07-29T02:48:02;17.90;68.30
76537;DHT22;65381;51.254;15.592;2023-07-29T02:50:31;17.90;68.30
76537;DHT22;65381;51.254;15.592;2023-07-29T02:52:59;17.80;68.40
76537;DHT22;65381;51.254;15.592;2023-07-29T02:55:27;17.80;68.40
76537;DHT22;65381;51.254;15.592;2023-07-29T02:57:55;17.80;68.40
76537;DHT22;65381;51.254;15.592;2023-07-29T03:00:23;17.80;68.50
76537;DHT22;65381;51.254;15.592;2023-07-29T03:02:51;17.80;68.50
76537;DHT22;65381;51.254;15.592;2023-07-29T03:05:20;17.80;68.60
76537;DHT22;65381;51.254;15.592;2023-07-29T03:07:48;17.80;68.70
76537;DHT22;65381;51.254;15.592;2023-07-29T03:10:16;17.70;68.70
76537;DHT22;65381;51.254;15.592;2023-07-29T03:12:44;17.80;68.70
76537;DHT22;65381;51.254;15.592;2023-07-29T03:15:12;17.80;68.70
76537;DHT22;65381;51.254;15.592;2023-07-29T03:17:40;17.80;68.70
76537;DHT22;65381;51.254;15.592;2023-07-29T03:20:09;17.80;68.70
76537;DHT22;65381;51.254;15.592;2023-07-29T03:22:36;17.80;68.70
76537;DHT22;65381;51.254;15.592;2023-07-29T03:25:05;17.80;68.70
76537;DHT22;65381;51.254;15.592;2023-07-29T03:27:33;17.80;68.70
76537;DHT22;65381;51.254;15.592;2023-07-29T03:30:04;17.80;68.80
76537;DHT22;65381;51.254;15.592;2023-07-29T03:32:32;17.80;68.80
76537;DHT22;65381;51.254;15.592;2023-07-29T03:35:01;17.80;68.90
76537;DHT22;65381;51.254;15.592;2023-07-29T03:37:29;17.80;68.90
76537;DHT22;65381;51.254;15.592;2023-07-29T03:39:57;17.90;69.00
76537;DHT22;65381;51.254;15.592;2023-07-29T03:42:29;17.90;69.00
76537;DHT22;65381;51.254;15.592;2023-07-29T03:44:57;18.00;69.10
76537;DHT22;65381;51.254;15.592;2023-07-29T03:47:25;18.00;69.20
76537;DHT22;65381;51.254;15.592;2023-07-29T03:49:55;18.00;69.30
76537;DHT22;65381;51.254;15.592;2023-07-29T03:52:23;18.00;69.30
76537;DHT22;65381;51.254;15.592;2023-07-29T03:54:51;18.10;69.40
76537;DHT22;65381;51.254;15.592;2023-07-29T03:57:19;18.20;69.60
76537;DHT22;65381;51.254;15.592;2023-07-29T03:59:47;18.30;69.60
76537;DHT22;65381;51.254;15.592;2023-07-29T04:02:15;18.40;69.60
76537;DHT22;65381;51.254;15.592;2023-07-29T04:04:43;18.40;69.70
76537;DHT22;65381;51.254;15.592;2023-07-29T04:07:15;18.50;69.70
76537;DHT22;65381;51.254;15.592;2023-07-29T04:09:43;18.70;69.80
76537;DHT22;65381;51.254;15.592;2023-07-29T04:12:11;18.80;69.70
76537;DHT22;65381;51.254;15.592;2023-07-29T04:14:39;18.90;69.60
76537;DHT22;65381;51.254;15.592;2023-07-29T04:17:07;18.90;69.60
76537;DHT22;65381;51.254;15.592;2023-07-29T04:19:36;19.00;69.60
76537;DHT22;65381;51.254;15.592;2023-07-29T04:22:04;19.20;69.90
76537;DHT22;65381;51.254;15.592;2023-07-29T04:24:32;19.50;70.00
76537;DHT22;65381;51.254;15.592;2023-07-29T04:27:00;19.70;69.90
76537;DHT22;65381;51.254;15.592;2023-07-29T04:29:28;20.00;69.90
76537;DHT22;65381;51.254;15.592;2023-07-29T04:31:56;20.40;69.60
76537;DHT22;65381;51.254;15.592;2023-07-29T04:34:24;20.70;69.60
76537;DHT22;65381;51.254;15.592;2023-07-29T04:36:52;21.00;69.50
76537;DHT22;65381;51.254;15.592;2023-07-29T04:39:21;21.30;69.30
76537;DHT22;65381;51.254;15.592;2023-07-29T04:41:49;21.50;69.10
76537;DHT22;65381;51.254;15.592;2023-07-29T04:44:17;21.80;68.90
76537;DHT22;65381;51.254;15.592;2023-07-29T04:46:44;22.00;68.60
76537;DHT22;65381;51.254;15.592;2023-07-29T04:49:13;22.10;68.60
76537;DHT22;65381;51.254;15.592;2023-07-29T04:51:41;22.30;68.50
76537;DHT22;65381;51.254;15.592;2023-07-29T04:54:09;22.50;68.40
76537;DHT22;65381;51.254;15.592;2023-07-29T04:56:37;22.70;68.30
76537;DHT22;65381;51.254;15.592;2023-07-29T04:59:05;22.90;68.10
76537;DHT22;65381;51.254;15.592;2023-07-29T05:01:35;23.20;67.90
76537;DHT22;65381;51.254;15.592;2023-07-29T05:04:04;23.40;67.60
76537;DHT22;65381;51.254;15.592;2023-07-29T05:06:32;23.50;67.50
76537;DHT22;65381;51.254;15.592;2023-07-29T05:09:12;23.70;67.30
76537;DHT22;65381;51.254;15.592;2023-07-29T05:11:40;23.90;67.10
76537;DHT22;65381;51.254;15.592;2023-07-29T05:14:09;24.20;66.90
76537;DHT22;65381;51.254;15.592;2023-07-29T05:16:37;24.40;66.60
76537;DHT22;65381;51.254;15.592;2023-07-29T05:19:05;24.50;66.30
76537;DHT22;65381;51.254;15.592;2023-07-29T05:21:33;24.60;66.10
76537;DHT22;65381;51.254;15.592;2023-07-29T05:24:01;24.80;66.00
76537;DHT22;65381;51.254;15.592;2023-07-29T05:26:29;25.00;65.70
76537;DHT22;65381;51.254;15.592;2023-07-29T05:28:57;25.20;65.60
76537;DHT22;65381;51.254;15.592;2023-07-29T05:31:25;25.60;65.50
76537;DHT22;65381;51.254;15.592;2023-07-29T05:33:54;26.00;64.70
76537;DHT22;65381;51.254;15.592;2023-07-29T05:36:22;26.20;64.20
76537;DHT22;65381;51.254;15.592;2023-07-29T05:38:52;26.20;64.00
76537;DHT22;65381;51.254;15.592;2023-07-29T05:41:20;26.40;64.10
76537;DHT22;65381;51.254;15.592;2023-07-29T05:43:48;26.50;63.60
76537;DHT22;65381;51.254;15.592;2023-07-29T05:46:16;26.70;63.30
76537;DHT22;65381;51.254;15.592;2023-07-29T05:48:45;27.00;62.50
76537;DHT22;65381;51.254;15.592;2023-07-29T05:51:12;27.50;62.20
76537;DHT22;65381;51.254;15.592;2023-07-29T05:53:41;28.10;61.30
76537;DHT22;65381;51.254;15.592;2023-07-29T05:56:09;29.10;60.30
76537;DHT22;65381;51.254;15.592;2023-07-29T05:58:38;29.70;59.00
76537;DHT22;65381;51.254;15.592;2023-07-29T06:01:07;30.00;58.40
76537;DHT22;65381;51.254;15.592;2023-07-29T06:03:35;30.20;58.20
76537;DHT22;65381;51.254;15.592;2023-07-29T06:06:03;30.60;58.00
76537;DHT22;65381;51.254;15.592;2023-07-29T06:08:31;31.20;57.60
76537;DHT22;65381;51.254;15.592;2023-07-29T06:11:01;31.80;56.80
76537;DHT22;65381;51.254;15.592;2023-07-29T06:13:30;32.20;56.70
76537;DHT22;65381;51.254;15.592;2023-07-29T06:15:58;32.40;56.40
76537;DHT22;65381;51.254;15.592;2023-07-29T06:18:26;32.70;55.80
76537;DHT22;65381;51.254;15.592;2023-07-29T06:20:54;32.70;55.30
76537;DHT22;65381;51.254;15.592;2023-07-29T06:23:22;32.60;55.10
76537;DHT22;65381;51.254;15.592;2023-07-29T06:25:50;32.60;54.90
76537;DHT22;65381;51.254;15.592;2023-07-29T06:28:18;32.60;54.80
76537;DHT22;65381;51.254;15.592;2023-07-29T06:30:46;32.80;54.70
76537;DHT22;65381;51.254;15.592;2023-07-29T06:33:14;33.00;54.20
76537;DHT22;65381;51.254;15.592;2023-07-29T06:35:42;32.80;53.60
76537;DHT22;65381;51.254;15.592;2023-07-29T06:38:10;32.60;53.90
76537;DHT22;65381;51.254;15.592;2023-07-29T06:40:38;32.80;53.60
76537;DHT22;65381;51.254;15.592;2023-07-29T06:43:07;33.00;53.10
76537;DHT22;65381;51.254;15.592;2023-07-29T06:45:34;33.50;52.70
76537;DHT22;65381;51.254;15.592;2023-07-29T06:48:03;34.00;51.80
76537;DHT22;65381;51.254;15.592;2023-07-29T06:50:31;34.40;51.10
76537;DHT22;65381;51.254;15.592;2023-07-29T06:52:59;34.50;51.00
76537;DHT22;65381;51.254;15.592;2023-07-29T06:55:27;34.80;50.30
76537;DHT22;65381;51.254;15.592;2023-07-29T06:57:55;34.80;49.50
76537;DHT22;65381;51.254;15.592;2023-07-29T07:00:23;34.10;49.70
76537;DHT22;65381;51.254;15.592;2023-07-29T07:02:52;33.80;50.40
76537;DHT22;65381;51.254;15.592;2023-07-29T07:05:20;34.20;50.20
76537;DHT22;65381;51.254;15.592;2023-07-29T07:07:48;34.00;49.40
76537;DHT22;65381;51.254;15.592;2023-07-29T07:10:16;33.40;49.00
76537;DHT22;65381;51.254;15.592;2023-07-29T07:12:44;32.30;49.70
76537;DHT22;65381;51.254;15.592;2023-07-29T07:15:12;32.00;50.70
76537;DHT22;65381;51.254;15.592;2023-07-29T07:17:40;32.80;50.40
76537;DHT22;65381;51.254;15.592;2023-07-29T07:20:10;33.50;49.40
76537;DHT22;65381;51.254;15.592;2023-07-29T07:22:39;34.00;48.80
76537;DHT22;65381;51.254;15.592;2023-07-29T07:25:07;35.00;47.80
76537;DHT22;65381;51.254;15.592;2023-07-29T07:27:36;35.90;47.10
76537;DHT22;65381;51.254;15.592;2023-07-29T07:30:05;36.40;46.20
76537;DHT22;65381;51.254;15.592;2023-07-29T07:32:33;36.10;46.10
76537;DHT22;65381;51.254;15.592;2023-07-29T07:35:01;35.40;46.50
76537;DHT22;65381;51.254;15.592;2023-07-29T07:37:29;35.50;46.60
76537;DHT22;65381;51.254;15.592;2023-07-29T07:39:57;35.80;46.40
76537;DHT22;65381;51.254;15.592;2023-07-29T07:42:26;35.70;45.30
76537;DHT22;65381;51.254;15.592;2023-07-29T07:44:54;34.60;45.80
76537;DHT22;65381;51.254;15.592;2023-07-29T07:47:22;33.80;46.70
76537;DHT22;65381;51.254;15.592;2023-07-29T07:49:50;34.20;46.90
76537;DHT22;65381;51.254;15.592;2023-07-29T07:52:19;34.90;45.90
76537;DHT22;65381;51.254;15.592;2023-07-29T07:54:52;35.30;45.30
76537;DHT22;65381;51.254;15.592;2023-07-29T07:57:21;35.80;44.50
76537;DHT22;65381;51.254;15.592;2023-07-29T07:59:49;35.70;43.20
76537;DHT22;65381;51.254;15.592;2023-07-29T08:02:19;34.80;44.20
76537;DHT22;65381;51.254;15.592;2023-07-29T08:04:48;34.60;44.40
76537;DHT22;65381;51.254;15.592;2023-07-29T08:07:16;34.30;44.30
76537;DHT22;65381;51.254;15.592;2023-07-29T08:09:44;33.10;44.60
76537;DHT22;65381;51.254;15.592;2023-07-29T08:12:12;31.80;45.60
76537;DHT22;65381;51.254;15.592;2023-07-29T08:14:42;31.20;46.10
76537;DHT22;65381;51.254;15.592;2023-07-29T08:17:11;30.60;46.50
76537;DHT22;65381;51.254;15.592;2023-07-29T08:19:39;30.30;46.70
76537;DHT22;65381;51.254;15.592;2023-07-29T08:22:07;29.80;46.70
76537;DHT22;65381;51.254;15.592;2023-07-29T08:24:35;29.60;47.50
76537;DHT22;65381;51.254;15.592;2023-07-29T08:27:03;30.30;46.90
76537;DHT22;65381;51.254;15.592;2023-07-29T08:29:31;30.80;46.70
76537;DHT22;65381;51.254;15.592;2023-07-29T08:31:59;31.90;46.10
76537;DHT22;65381;51.254;15.592;2023-07-29T08:34:27;33.10;44.80
76537;DHT22;65381;51.254;15.592;2023-07-29T08:36:55;33.00;44.30
76537;DHT22;65381;51.254;15.592;2023-07-29T08:39:23;32.20;44.60
76537;DHT22;65381;51.254;15.592;2023-07-29T08:44:40;30.10;46.20
76537;DHT22;65381;51.254;15.592;2023-07-29T08:47:08;29.70;47.10
76537;DHT22;65381;51.254;15.592;2023-07-29T08:49:40;30.40;46.80
76537;DHT22;65381;51.254;15.592;2023-07-29T08:52:09;30.60;46.20
76537;DHT22;65381;51.254;15.592;2023-07-29T08:54:37;30.50;46.40
76537;DHT22;65381;51.254;15.592;2023-07-29T08:57:06;31.60;46.30
76537;DHT22;65381;51.254;15.592;2023-07-29T08:59:34;33.30;45.20
76537;DHT22;65381;51.254;15.592;2023-07-29T09:02:02;35.20;43.70
76537;DHT22;65381;51.254;15.592;2023-07-29T09:04:30;36.50;42.50
76537;DHT22;65381;51.254;15.592;2023-07-29T09:06:59;36.90;41.90
76537;DHT22;65381;51.254;15.592;2023-07-29T09:09:27;36.30;41.70
76537;DHT22;65381;51.254;15.592;2023-07-29T09:11:57;35.00;42.60
76537;DHT22;65381;51.254;15.592;2023-07-29T09:14:25;33.50;43.60
76537;DHT22;65381;51.254;15.592;2023-07-29T09:16:53;32.40;44.40
76537;DHT22;65381;51.254;15.592;2023-07-29T09:19:25;31.50;45.10
76537;DHT22;65381;51.254;15.592;2023-07-29T09:21:53;30.60;45.70
76537;DHT22;65381;51.254;15.592;2023-07-29T09:24:21;30.10;46.30
76537;DHT22;65381;51.254;15.592;2023-07-29T09:26:50;30.10;46.10
76537;DHT22;65381;51.254;15.592;2023-07-29T09:29:22;30.50;46.30
76537;DHT22;65381;51.254;15.592;2023-07-29T09:31:53;32.20;45.40
76537;DHT22;65381;51.254;15.592;2023-07-29T09:34:20;34.20;43.50
76537;DHT22;65381;51.254;15.592;2023-07-29T09:36:50;35.50;42.30
76537;DHT22;65381;51.254;15.592;2023-07-29T09:39:18;36.10;41.50
76537;DHT22;65381;51.254;15.592;2023-07-29T09:41:48;36.30;41.20
76537;DHT22;65381;51.254;15.592;2023-07-29T09:44:18;36.70;40.90
76537;DHT22;65381;51.254;15.592;2023-07-29T09:46:47;37.00;40.70
76537;DHT22;65381;51.254;15.592;2023-07-29T09:49:15;36.70;40.90
76537;DHT22;65381;51.254;15.592;2023-07-29T09:51:43;36.90;40.90
76537;DHT22;65381;51.254;15.592;2023-07-29T09:54:11;37.00;39.90
76537;DHT22;65381;51.254;15.592;2023-07-29T09:56:41;35.70;40.00
76537;DHT22;65381;51.254;15.592;2023-07-29T09:59:12;34.60;40.90
76537;DHT22;65381;51.254;15.592;2023-07-29T10:01:41;33.90;41.50
76537;DHT22;65381;51.254;15.592;2023-07-29T10:04:09;33.10;42.20
76537;DHT22;65381;51.254;15.592;2023-07-29T10:06:41;33.20;41.90
76537;DHT22;65381;51.254;15.592;2023-07-29T10:09:11;34.20;41.50
76537;DHT22;65381;51.254;15.592;2023-07-29T10:11:42;35.50;40.60
76537;DHT22;65381;51.254;15.592;2023-07-29T10:14:10;36.40;39.80
76537;DHT22;65381;51.254;15.592;2023-07-29T10:16:40;36.90;38.90
76537;DHT22;65381;51.254;15.592;2023-07-29T10:19:13;36.70;38.50
76537;DHT22;65381;51.254;15.592;2023-07-29T10:21:46;35.80;38.70
76537;DHT22;65381;51.254;15.592;2023-07-29T10:24:19;35.00;38.90
76537;DHT22;65381;51.254;15.592;2023-07-29T10:26:50;34.30;39.50
76537;DHT22;65381;51.254;15.592;2023-07-29T10:29:19;33.90;39.70
76537;DHT22;65381;51.254;15.592;2023-07-29T10:31:55;32.80;40.30
76537;DHT22;65381;51.254;15.592;2023-07-29T10:34:25;32.20;40.80
76537;DHT22;65381;51.254;15.592;2023-07-29T10:36:54;32.10;40.80
76537;DHT22;65381;51.254;15.592;2023-07-29T10:39:23;31.70;41.00
76537;DHT22;65381;51.254;15.592;2023-07-29T10:47:25;29.50;42.80
76537;DHT22;65381;51.254;15.592;2023-07-29T10:49:59;28.90;43.40
76537;DHT22;65381;51.254;15.592;2023-07-29T10:52:30;28.30;43.90
76537;DHT22;65381;51.254;15.592;2023-07-29T10:54:58;27.90;44.40
76537;DHT22;65381;51.254;15.592;2023-07-29T10:57:38;27.50;44.90
76537;DHT22;65381;51.254;15.592;2023-07-29T11:00:09;27.10;45.40
76537;DHT22;65381;51.254;15.592;2023-07-29T11:02:38;26.70;45.60
76537;DHT22;65381;51.254;15.592;2023-07-29T11:05:07;26.50;46.10
76537;DHT22;65381;51.254;15.592;2023-07-29T11:07:45;26.40;46.30
76537;DHT22;65381;51.254;15.592;2023-07-29T11:10:14;26.40;46.60
76537;DHT22;65381;51.254;15.592;2023-07-29T11:12:47;26.60;46.60
76537;DHT22;65381;51.254;15.592;2023-07-29T11:15:22;26.80;46.60
76537;DHT22;65381;51.254;15.592;2023-07-29T11:17:54;27.30;46.50
76537;DHT22;65381;51.254;15.592;2023-07-29T11:20:25;27.80;46.10
76537;DHT22;65381;51.254;15.592;2023-07-29T11:22:55;27.90;45.90
76537;DHT22;65381;51.254;15.592;2023-07-29T11:25:24;28.00;46.10
76537;DHT22;65381;51.254;15.592;2023-07-29T11:27:57;28.20;46.20
76537;DHT22;65381;51.254;15.592;2023-07-29T11:30:26;29.50;45.60
76537;DHT22;65381;51.254;15.592;2023-07-29T11:32:55;30.70;44.10
76537;DHT22;65381;51.254;15.592;2023-07-29T11:35:24;30.90;43.60
76537;DHT22;65381;51.254;15.592;2023-07-29T11:37:54;30.50;43.80
76537;DHT22;65381;51.254;15.592;2023-07-29T11:40:24;30.10;44.30
76537;DHT22;65381;51.254;15.592;2023-07-29T11:42:53;30.10;44.50
76537;DHT22;65381;51.254;15.592;2023-07-29T11:45:22;30.20;44.50
76537;DHT22;65381;51.254;15.592;2023-07-29T11:48:02;30.50;44.30
76537;DHT22;65381;51.254;15.592;2023-07-29T11:50:30;30.60;44.20
76537;DHT22;65381;51.254;15.592;2023-07-29T11:52:59;30.50;44.10
76537;DHT22;65381;51.254;15.592;2023-07-29T11:55:28;30.30;44.30
76537;DHT22;65381;51.254;15.592;2023-07-29T11:57:56;29.70;44.40
76537;DHT22;65381;51.254;15.592;2023-07-29T12:00:25;29.20;44.90
76537;DHT22;65381;51.254;15.592;2023-07-29T12:02:54;28.70;45.20
76537;DHT22;65381;51.254;15.592;2023-07-29T12:05:23;28.10;45.60
76537;DHT22;65381;51.254;15.592;2023-07-29T12:07:51;27.90;46.00
76537;DHT22;65381;51.254;15.592;2023-07-29T12:10:20;27.80;46.20
76537;DHT22;65381;51.254;15.592;2023-07-29T12:12:50;27.90;46.30
76537;DHT22;65381;51.254;15.592;2023-07-29T12:15:29;28.50;46.00
76537;DHT22;65381;51.254;15.592;2023-07-29T12:17:58;28.90;45.70
76537;DHT22;65381;51.254;15.592;2023-07-29T12:20:29;29.20;45.30
76537;DHT22;65381;51.254;15.592;2023-07-29T12:22:59;29.30;45.30
76537;DHT22;65381;51.254;15.592;2023-07-29T12:25:32;29.40;45.30
76537;DHT22;65381;51.254;15.592;2023-07-29T12:28:05;29.70;45.30
76537;DHT22;65381;51.254;15.592;2023-07-29T12:30:41;30.30;45.10
76537;DHT22;65381;51.254;15.592;2023-07-29T12:33:32;30.80;44.60
76537;DHT22;65381;51.254;15.592;2023-07-29T12:36:00;31.50;44.30
76537;DHT22;65381;51.254;15.592;2023-07-29T12:38:29;31.80;43.80
76537;DHT22;65381;51.254;15.592;2023-07-29T12:40:57;31.70;43.70
76537;DHT22;65381;51.254;15.592;2023-07-29T12:43:28;31.50;43.70
76537;DHT22;65381;51.254;15.592;2023-07-29T12:45:57;31.30;43.90
76537;DHT22;65381;51.254;15.592;2023-07-29T12:48:26;31.30;44.00
76537;DHT22;65381;51.254;15.592;2023-07-29T12:50:54;31.50;43.70
76537;DHT22;65381;51.254;15.592;2023-07-29T12:53:22;31.50;43.60
76537;DHT22;65381;51.254;15.592;2023-07-29T12:55:50;31.40;43.60
76537;DHT22;65381;51.254;15.592;2023-07-29T12:58:18;31.30;43.50
76537;DHT22;65381;51.254;15.592;2023-07-29T13:00:46;31.00;43.70
76537;DHT22;65381;51.254;15.592;2023-07-29T13:03:15;30.60;43.70
76537;DHT22;65381;51.254;15.592;2023-07-29T13:05:43;30.00;44.00
76537;DHT22;65381;51.254;15.592;2023-07-29T13:08:11;29.60;44.40
76537;DHT22;65381;51.254;15.592;2023-07-29T13:10:39;29.30;44.60
76537;DHT22;65381;51.254;15.592;2023-07-29T13:13:07;29.00;44.80
76537;DHT22;65381;51.254;15.592;2023-07-29T13:15:35;28.70;45.00
76537;DHT22;65381;51.254;15.592;2023-07-29T13:18:04;28.40;45.30
76537;DHT22;65381;51.254;15.592;2023-07-29T13:20:32;28.20;45.50
76537;DHT22;65381;51.254;15.592;2023-07-29T13:23:02;28.10;45.60
76537;DHT22;65381;51.254;15.592;2023-07-29T13:25:29;28.10;45.70
76537;DHT22;65381;51.254;15.592;2023-07-29T13:27:58;28.10;45.70
76537;DHT22;65381;51.254;15.592;2023-07-29T13:30:26;28.00;45.80
76537;DHT22;65381;51.254;15.592;2023-07-29T13:32:54;27.80;45.90
76537;DHT22;65381;51.254;15.592;2023-07-29T13:35:22;27.70;46.10
76537;DHT22;65381;51.254;15.592;2023-07-29T13:37:50;27.50;46.30
76537;DHT22;65381;51.254;15.592;2023-07-29T13:40:18;27.30;46.50
76537;DHT22;65381;51.254;15.592;2023-07-29T13:42:47;27.10;46.70
76537;DHT22;65381;51.254;15.592;2023-07-29T13:45:15;27.00;46.80
76537;DHT22;65381;51.254;15.592;2023-07-29T13:47:43;26.90;46.90
76537;DHT22;65381;51.254;15.592;2023-07-29T13:50:12;26.80;47.00
76537;DHT22;65381;51.254;15.592;2023-07-29T13:52:40;26.80;47.10
76537;DHT22;65381;51.254;15.592;2023-07-29T13:55:08;26.70;47.20
76537;DHT22;65381;51.254;15.592;2023-07-29T13:57:38;26.70;47.20
76537;DHT22;65381;51.254;15.592;2023-07-29T14:00:07;26.70;47.20
76537;DHT22;65381;51.254;15.592;2023-07-29T14:02:39;26.50;47.50
76537;DHT22;65381;51.254;15.592;2023-07-29T14:05:07;26.10;47.90
76537;DHT22;65381;51.254;15.592;2023-07-29T14:07:35;25.80;48.30
76537;DHT22;65381;51.254;15.592;2023-07-29T14:10:04;25.60;48.70
76537;DHT22;65381;51.254;15.592;2023-07-29T14:12:33;25.60;49.00
76537;DHT22;65381;51.254;15.592;2023-07-29T14:15:01;25.50;49.00
76537;DHT22;65381;51.254;15.592;2023-07-29T14:17:29;25.40;49.00
76537;DHT22;65381;51.254;15.592;2023-07-29T14:19:57;25.30;49.00
76537;DHT22;65381;51.254;15.592;2023-07-29T14:22:26;25.00;49.20
76537;DHT22;65381;51.254;15.592;2023-07-29T14:24:53;24.90;49.30
76537;DHT22;65381;51.254;15.592;2023-07-29T14:27:24;24.80;49.40
76537;DHT22;65381;51.254;15.592;2023-07-29T14:29:51;24.70;49.50
76537;DHT22;65381;51.254;15.592;2023-07-29T14:32:20;24.50;49.70
76537;DHT22;65381;51.254;15.592;2023-07-29T14:34:50;24.40;50.00
76537;DHT22;65381;51.254;15.592;2023-07-29T14:37:18;24.20;50.20
76537;DHT22;65381;51.254;15.592;2023-07-29T14:39:46;24.10;50.50
76537;DHT22;65381;51.254;15.592;2023-07-29T14:42:15;24.00;50.70
76537;DHT22;65381;51.254;15.592;2023-07-29T14:44:43;24.10;50.90
76537;DHT22;65381;51.254;15.592;2023-07-29T14:47:11;24.20;50.90
76537;DHT22;65381;51.254;15.592;2023-07-29T14:49:39;24.20;51.10
76537;DHT22;65381;51.254;15.592;2023-07-29T14:52:08;24.20;51.10
76537;DHT22;65381;51.254;15.592;2023-07-29T14:54:36;24.40;51.00
76537;DHT22;65381;51.254;15.592;2023-07-29T14:57:05;24.70;50.80
76537;DHT22;65381;51.254;15.592;2023-07-29T14:59:33;25.00;50.70
76537;DHT22;65381;51.254;15.592;2023-07-29T15:02:02;25.30;50.50
76537;DHT22;65381;51.254;15.592;2023-07-29T15:04:30;25.50;50.40
76537;DHT22;65381;51.254;15.592;2023-07-29T15:06:58;25.80;50.10
76537;DHT22;65381;51.254;15.592;2023-07-29T15:09:27;26.00;49.80
76537;DHT22;65381;51.254;15.592;2023-07-29T15:11:55;26.20;49.70
76537;DHT22;65381;51.254;15.592;2023-07-29T15:14:25;26.40;49.50
76537;DHT22;65381;51.254;15.592;2023-07-29T15:16:54;26.40;49.20
76537;DHT22;65381;51.254;15.592;2023-07-29T15:19:22;26.20;49.30
76537;DHT22;65381;51.254;15.592;2023-07-29T15:21:50;26.00;49.40
76537;DHT22;65381;51.254;15.592;2023-07-29T15:24:19;25.90;49.50
76537;DHT22;65381;51.254;15.592;2023-07-29T15:26:47;25.80;49.60
76537;DHT22;65381;51.254;15.592;2023-07-29T15:29:15;26.00;49.50
76537;DHT22;65381;51.254;15.592;2023-07-29T15:31:43;26.00;49.30
76537;DHT22;65381;51.254;15.592;2023-07-29T15:34:11;25.90;49.10
76537;DHT22;65381;51.254;15.592;2023-07-29T15:36:39;25.80;49.10
76537;DHT22;65381;51.254;15.592;2023-07-29T15:39:07;25.80;49.00
76537;DHT22;65381;51.254;15.592;2023-07-29T15:41:36;25.70;49.00
76537;DHT22;65381;51.254;15.592;2023-07-29T15:44:04;25.60;49.00